Time;durP1;ratioP1;P1;durP2;ratioP2;P2;SDS_P1;SDS_P2;PMS_P1;PMS_P2;Temp;Humidity;BMP_temperature;BMP_pressure;BME280_temperature;BME280_humidity;BME280_pressure;Samples;Min_cycle;Max_cycle;Signal;HPM_P1;HPM_P2
2023/12/24 00:01:02;;;;;;;2.28;1.13;;;10.50;99.90;;;;;;5069880;28;20435;-72
2023/12/24 00:03:29;;;;;;;2.25;1.23;;;10.50;99.90;;;;;;5066200;28;20412;-72
2023/12/24 00:05:56;;;;;;;2.42;1.20;;;10.50;99.90;;;;;;5064663;28;20417;-71
2023/12/24 00:08:24;;;;;;;5.35;1.60;;;10.50;99.90;;;;;;5059052;28;20426;-72
2023/12/24 00:10:51;;;;;;;2.70;1.30;;;10.50;99.90;;;;;;5069062;28;20427;-71
2023/12/24 00:13:17;;;;;;;2.70;1.60;;;10.40;99.90;;;;;;5069614;28;20916;-71
2023/12/24 00:15:44;;;;;;;2.10;1.10;;;10.40;99.90;;;;;;5068387;28;20435;-72
2023/12/24 00:18:11;;;;;;;1.90;1.40;;;10.30;99.90;;;;;;5065554;28;20419;-71
2023/12/24 00:20:38;;;;;;;2.85;1.08;;;10.20;99.90;;;;;;5068932;28;20431;-72
2023/12/24 00:23:05;;;;;;;2.53;1.30;;;10.20;99.90;;;;;;5065441;28;20418;-71
2023/12/24 00:25:34;;;;;;;4.18;1.60;;;10.10;99.90;;;;;;5067923;28;20431;-72
2023/12/24 00:28:00;;;;;;;2.90;1.00;;;10.10;99.90;;;;;;5069380;28;20422;-73
2023/12/24 00:30:27;;;;;;;1.90;1.20;;;10.10;99.90;;;;;;5068329;28;20419;-73
2023/12/24 00:32:54;;;;;;;3.40;1.60;;;10.10;99.90;;;;;;5067810;28;20419;-70
2023/12/24 00:35:21;;;;;;;2.20;1.10;;;10.00;99.90;;;;;;5068971;28;20910;-71
2023/12/24 00:37:48;;;;;;;2.30;1.40;;;9.90;99.90;;;;;;5067996;28;20904;-72
2023/12/24 00:40:15;;;;;;;2.58;1.58;;;9.90;99.90;;;;;;5068084;28;20431;-71
2023/12/24 00:42:43;;;;;;;2.90;1.40;;;9.90;99.90;;;;;;5063697;28;20519;-72
2023/12/24 00:45:10;;;;;;;3.90;1.70;;;9.90;99.90;;;;;;5063251;28;20410;-72
2023/12/24 00:47:37;;;;;;;1.88;0.90;;;9.90;99.90;;;;;;5063988;28;20419;-71
2023/12/24 00:50:06;;;;;;;2.50;1.00;;;9.90;99.90;;;;;;5060816;28;20419;-71
2023/12/24 00:52:33;;;;;;;2.72;1.35;;;9.90;99.90;;;;;;5067477;28;20927;-71
2023/12/24 00:55:00;;;;;;;1.70;0.90;;;9.90;99.90;;;;;;5064907;28;20438;-72
2023/12/24 00:57:26;;;;;;;1.30;0.80;;;9.80;99.90;;;;;;5066445;28;20435;-74
2023/12/24 00:59:54;;;;;;;1.90;0.65;;;9.80;99.90;;;;;;5066755;28;20428;-72
2023/12/24 01:02:21;;;;;;;1.50;0.80;;;9.90;99.90;;;;;;5062742;28;20418;-72
2023/12/24 01:04:48;;;;;;;1.33;0.70;;;9.90;99.90;;;;;;5067479;28;20846;-72
2023/12/24 01:07:17;;;;;;;1.45;0.80;;;9.90;99.90;;;;;;5067985;28;20418;-70
2023/12/24 01:09:44;;;;;;;1.20;0.70;;;9.80;99.90;;;;;;5062607;28;20460;-71
2023/12/24 01:12:11;;;;;;;1.03;0.77;;;9.80;99.90;;;;;;5068989;28;20403;-71
2023/12/24 01:14:37;;;;;;;1.77;0.70;;;9.80;99.90;;;;;;5063177;28;20939;-73
2023/12/24 01:17:06;;;;;;;2.10;0.68;;;9.90;99.90;;;;;;5057407;28;20425;-72
2023/12/24 01:19:32;;;;;;;1.70;0.70;;;9.80;99.90;;;;;;5058526;28;20421;-71
2023/12/24 01:21:59;;;;;;;1.40;0.70;;;9.80;99.90;;;;;;5068251;28;20899;-70
2023/12/24 01:24:26;;;;;;;1.83;0.90;;;9.80;99.90;;;;;;5063837;28;20447;-72
2023/12/24 01:26:53;;;;;;;1.00;0.60;;;9.80;99.90;;;;;;5063988;28;20419;-71
2023/12/24 01:29:19;;;;;;;1.38;1.00;;;9.70;99.90;;;;;;5059645;28;20760;-73
2023/12/24 01:31:46;;;;;;;0.90;0.60;;;9.60;99.90;;;;;;5064002;28;20436;-73
2023/12/24 01:34:14;;;;;;;1.00;0.40;;;9.60;99.90;;;;;;5062577;28;20454;-72
2023/12/24 01:36:41;;;;;;;1.00;0.50;;;9.60;99.90;;;;;;5055552;28;20408;-72
2023/12/24 01:39:08;;;;;;;1.40;0.60;;;9.70;99.90;;;;;;5061726;28;20439;-71
2023/12/24 01:41:35;;;;;;;1.80;0.60;;;9.80;99.90;;;;;;5063381;28;21222;-72
2023/12/24 01:44:01;;;;;;;1.50;0.50;;;9.90;99.90;;;;;;5060743;28;20424;-72
2023/12/24 01:46:29;;;;;;;1.20;0.50;;;9.90;99.90;;;;;;5051684;28;20813;-72
2023/12/24 01:48:56;;;;;;;1.70;0.60;;;9.90;99.90;;;;;;5063204;28;20408;-73
2023/12/24 01:51:26;;;;;;;1.42;0.65;;;9.80;99.90;;;;;;5062758;28;20442;-71
2023/12/24 01:53:54;;;;;;;1.60;0.50;;;9.80;99.90;;;;;;5055900;28;20408;-71
2023/12/24 01:56:23;;;;;;;1.00;0.50;;;9.60;99.90;;;;;;5058168;28;20439;-71
2023/12/24 01:58:51;;;;;;;1.10;0.50;;;9.50;99.90;;;;;;5059806;28;20417;-72
2023/12/24 02:01:18;;;;;;;1.15;0.60;;;9.50;99.90;;;;;;5056252;28;20850;-71
2023/12/24 02:03:45;;;;;;;0.98;0.50;;;9.30;99.90;;;;;;5059083;28;20431;-71
2023/12/24 02:06:12;;;;;;;1.90;0.93;;;9.20;99.90;;;;;;5065070;28;20415;-72
2023/12/24 02:08:40;;;;;;;0.90;0.50;;;9.20;99.90;;;;;;5067012;28;20419;-72
2023/12/24 02:11:08;;;;;;;2.60;0.60;;;9.10;99.90;;;;;;5063849;28;20431;-71
2023/12/24 02:13:35;;;;;;;0.90;0.50;;;9.10;99.90;;;;;;5060594;28;20414;-71
2023/12/24 02:16:03;;;;;;;2.10;0.50;;;9.10;99.90;;;;;;5067256;28;20415;-71
2023/12/24 02:18:30;;;;;;;1.60;0.40;;;9.10;99.90;;;;;;5066251;28;20802;-72
2023/12/24 02:21:02;;;;;;;0.80;0.40;;;9.10;99.90;;;;;;5064057;28;20463;-71
2023/12/24 02:23:29;;;;;;;1.90;0.50;;;9.10;99.90;;;;;;5067422;28;20408;-73
2023/12/24 02:26:01;;;;;;;0.70;0.40;;;9.20;99.90;;;;;;5068320;28;20438;-71
2023/12/24 02:28:34;;;;;;;1.10;0.40;;;9.20;99.90;;;;;;5067118;28;20415;-71
2023/12/24 02:31:04;;;;;;;1.30;0.40;;;9.20;99.90;;;;;;5063907;28;20424;-72
2023/12/24 02:33:35;;;;;;;0.70;0.30;;;9.30;99.90;;;;;;5065835;28;20420;-71
2023/12/24 02:36:05;;;;;;;1.30;0.40;;;9.30;99.90;;;;;;5064925;28;20431;-71
2023/12/24 02:38:32;;;;;;;0.80;0.30;;;9.40;99.90;;;;;;5065562;28;20427;-71
2023/12/24 02:40:58;;;;;;;0.70;0.30;;;9.40;99.90;;;;;;5064774;28;20431;-71
2023/12/24 02:43:25;;;;;;;0.90;0.30;;;9.50;99.90;;;;;;5064734;28;20415;-71
2023/12/24 02:45:52;;;;;;;0.77;0.30;;;9.50;99.90;;;;;;5067339;28;20416;-71
2023/12/24 02:48:19;;;;;;;1.30;0.30;;;9.50;99.90;;;;;;5066110;28;20422;-73
2023/12/24 02:50:45;;;;;;;1.20;0.40;;;9.60;99.90;;;;;;5065277;28;20427;-72
2023/12/24 02:53:13;;;;;;;0.80;0.30;;;9.70;99.90;;;;;;5065176;28;20447;-71
2023/12/24 02:55:40;;;;;;;0.68;0.30;;;9.70;99.90;;;;;;5060115;28;20438;-71
2023/12/24 02:58:07;;;;;;;0.80;0.30;;;9.80;99.90;;;;;;5066468;28;20407;-71
2023/12/24 03:00:33;;;;;;;0.90;0.30;;;9.80;99.90;;;;;;5066452;28;20439;-70
2023/12/24 03:03:00;;;;;;;0.80;0.30;;;9.80;99.90;;;;;;5060263;28;20425;-71
2023/12/24 03:05:27;;;;;;;0.70;0.30;;;9.70;99.90;;;;;;5064221;28;20949;-72
2023/12/24 03:07:54;;;;;;;1.30;0.40;;;9.70;99.90;;;;;;5055156;28;20420;-72
2023/12/24 03:10:22;;;;;;;0.80;0.30;;;9.60;99.90;;;;;;5053876;28;20896;-71
2023/12/24 03:12:48;;;;;;;0.70;0.30;;;9.60;99.90;;;;;;5060928;28;20432;-72
2023/12/24 03:15:15;;;;;;;0.85;0.30;;;9.50;99.90;;;;;;5063493;28;20415;-71
2023/12/24 03:17:42;;;;;;;1.40;0.40;;;9.40;99.90;;;;;;5057395;28;20423;-72
2023/12/24 03:20:10;;;;;;;0.90;0.30;;;9.40;99.90;;;;;;5066184;28;20415;-72
2023/12/24 03:22:36;;;;;;;0.70;0.30;;;9.40;99.90;;;;;;5065381;28;20682;-72
2023/12/24 03:25:04;;;;;;;0.70;0.30;;;9.40;99.90;;;;;;5061887;28;20890;-71
2023/12/24 03:27:32;;;;;;;1.30;0.50;;;9.30;99.90;;;;;;5063972;28;20562;-72
2023/12/24 03:29:58;;;;;;;1.00;0.40;;;9.30;99.90;;;;;;5066886;28;20408;-71
2023/12/24 03:32:25;;;;;;;0.80;0.40;;;9.30;99.90;;;;;;5066405;28;20415;-71
2023/12/24 03:34:52;;;;;;;1.10;0.40;;;9.30;99.90;;;;;;5061007;28;20415;-71
2023/12/24 03:37:18;;;;;;;0.70;0.38;;;9.20;99.90;;;;;;5065490;28;20415;-70
2023/12/24 03:39:45;;;;;;;0.70;0.40;;;9.20;99.90;;;;;;5064600;28;20439;-70
2023/12/24 03:42:12;;;;;;;1.20;0.50;;;9.20;99.90;;;;;;5066147;28;20428;-72
2023/12/24 03:44:40;;;;;;;0.80;0.40;;;9.20;99.90;;;;;;5062954;28;20422;-73
2023/12/24 03:47:07;;;;;;;0.70;0.40;;;9.20;99.90;;;;;;5062512;28;20419;-71
2023/12/24 03:49:33;;;;;;;1.03;0.40;;;9.20;99.90;;;;;;5065427;28;20966;-70
2023/12/24 03:52:00;;;;;;;1.30;0.40;;;9.20;99.90;;;;;;5064994;28;20786;-72
2023/12/24 03:54:27;;;;;;;1.00;0.40;;;9.20;99.90;;;;;;5064114;28;20418;-72
2023/12/24 03:56:53;;;;;;;1.55;0.50;;;9.20;99.90;;;;;;5062688;28;20942;-72
2023/12/24 03:59:20;;;;;;;1.10;0.50;;;9.10;99.90;;;;;;5066432;28;20415;-70
2023/12/24 04:01:48;;;;;;;0.80;0.40;;;9.10;99.90;;;;;;5066472;28;20434;-71
2023/12/24 04:04:15;;;;;;;1.20;0.40;;;9.10;99.90;;;;;;5066040;28;20419;-70
2023/12/24 04:06:41;;;;;;;0.80;0.50;;;9.10;99.90;;;;;;5066090;28;20412;-70
2023/12/24 04:09:09;;;;;;;1.10;0.40;;;9.00;99.90;;;;;;5069398;28;20423;-71
2023/12/24 04:11:36;;;;;;;1.10;0.40;;;9.00;99.90;;;;;;5068789;28;20906;-71
2023/12/24 04:14:02;;;;;;;0.70;0.30;;;9.00;99.90;;;;;;5060611;28;20420;-71
2023/12/24 04:16:29;;;;;;;0.70;0.40;;;9.00;99.90;;;;;;5067388;28;20412;-71
2023/12/24 04:18:57;;;;;;;0.87;0.50;;;9.00;99.90;;;;;;5066613;28;20415;-71
2023/12/24 04:21:24;;;;;;;0.90;0.47;;;9.00;99.90;;;;;;5066149;28;20936;-71
2023/12/24 04:23:51;;;;;;;0.80;0.40;;;9.00;99.90;;;;;;5069209;28;20415;-71
2023/12/24 04:26:18;;;;;;;0.80;0.40;;;9.00;99.90;;;;;;5067709;28;20459;-72
2023/12/24 04:28:44;;;;;;;1.00;0.30;;;9.00;99.90;;;;;;5061688;28;20914;-71
2023/12/24 04:31:11;;;;;;;1.40;0.30;;;9.00;99.90;;;;;;5070203;28;20400;-72
2023/12/24 04:33:38;;;;;;;0.73;0.30;;;9.00;99.90;;;;;;5069815;28;20412;-70
2023/12/24 04:36:08;;;;;;;0.70;0.30;;;9.00;99.90;;;;;;5066587;28;20568;-71
2023/12/24 04:38:34;;;;;;;0.80;0.40;;;9.00;99.90;;;;;;5062999;28;20411;-71
2023/12/24 04:41:01;;;;;;;1.20;0.30;;;9.00;99.90;;;;;;5068574;28;20424;-73
2023/12/24 04:43:28;;;;;;;0.70;0.40;;;9.00;99.90;;;;;;5069040;28;20445;-71
2023/12/24 04:45:55;;;;;;;0.90;0.30;;;9.00;99.90;;;;;;5069598;28;20420;-72
2023/12/24 04:48:22;;;;;;;0.70;0.30;;;9.10;99.90;;;;;;5062430;28;20423;-72
2023/12/24 04:50:49;;;;;;;0.70;0.30;;;9.00;99.90;;;;;;5069062;28;20426;-71
2023/12/24 04:53:17;;;;;;;1.70;0.40;;;9.00;99.90;;;;;;5061042;28;20496;-72
2023/12/24 04:55:44;;;;;;;0.70;0.30;;;9.00;99.90;;;;;;5068425;28;20438;-71
2023/12/24 04:58:10;;;;;;;0.70;0.40;;;9.00;99.90;;;;;;5064444;28;20980;-71
2023/12/24 05:00:37;;;;;;;0.60;0.30;;;9.10;99.90;;;;;;5068054;28;20427;-71
2023/12/24 05:03:04;;;;;;;0.70;0.30;;;9.00;99.90;;;;;;5068504;28;20428;-71
2023/12/24 05:05:31;;;;;;;1.10;0.30;;;9.00;99.90;;;;;;5068200;28;20426;-71
2023/12/24 05:07:57;;;;;;;1.40;0.30;;;9.00;99.90;;;;;;5067374;28;20416;-71
2023/12/24 05:10:27;;;;;;;1.00;0.40;;;9.10;99.90;;;;;;5062096;28;20909;-71
2023/12/24 05:12:53;;;;;;;2.20;0.40;;;9.10;99.90;;;;;;5066329;28;20849;-72
2023/12/24 05:15:20;;;;;;;0.70;0.30;;;9.10;99.90;;;;;;5062369;28;20427;-71
2023/12/24 05:17:47;;;;;;;0.70;0.30;;;9.10;99.90;;;;;;5068135;28;20419;-72
2023/12/24 05:20:14;;;;;;;0.60;0.30;;;9.10;99.90;;;;;;5066165;28;20447;-72
2023/12/24 05:22:40;;;;;;;0.60;0.30;;;9.10;99.90;;;;;;5068300;28;20439;-71
2023/12/24 05:25:08;;;;;;;0.70;0.30;;;9.10;99.90;;;;;;5066095;28;20435;-72
2023/12/24 05:27:36;;;;;;;0.60;0.30;;;9.10;99.90;;;;;;5062715;28;20431;-72
2023/12/24 05:30:03;;;;;;;0.60;0.30;;;9.10;99.90;;;;;;5062601;28;20419;-73
2023/12/24 05:32:29;;;;;;;0.65;0.30;;;9.10;99.90;;;;;;5068274;28;20435;-72
2023/12/24 05:34:56;;;;;;;0.60;0.30;;;9.10;99.90;;;;;;5068053;28;20426;-72
2023/12/24 05:37:23;;;;;;;0.60;0.30;;;9.20;99.90;;;;;;5066996;28;20407;-71
2023/12/24 05:39:49;;;;;;;0.60;0.30;;;9.20;99.90;;;;;;5063799;28;20788;-71
2023/12/24 05:42:16;;;;;;;0.70;0.30;;;9.20;99.90;;;;;;5064246;28;20428;-71
2023/12/24 05:44:44;;;;;;;0.68;0.30;;;9.20;99.90;;;;;;5061223;28;20419;-72
2023/12/24 05:47:11;;;;;;;0.60;0.30;;;9.20;99.90;;;;;;5068008;28;20782;-71
2023/12/24 05:49:39;;;;;;;1.90;0.30;;;9.20;99.90;;;;;;5067576;28;20415;-71
2023/12/24 05:52:05;;;;;;;0.60;0.30;;;9.30;99.90;;;;;;5066066;28;20794;-71
2023/12/24 05:54:32;;;;;;;0.60;0.30;;;9.30;99.90;;;;;;5066309;28;20435;-71
2023/12/24 05:56:59;;;;;;;0.60;0.30;;;9.30;99.90;;;;;;5066360;28;20412;-71
2023/12/24 05:59:26;;;;;;;0.60;0.30;;;9.30;99.90;;;;;;5062271;28;20413;-71
2023/12/24 06:01:54;;;;;;;0.60;0.30;;;9.40;99.90;;;;;;5068073;28;20431;-72
2023/12/24 06:04:20;;;;;;;0.60;0.30;;;9.40;99.90;;;;;;5067128;28;20422;-70
2023/12/24 06:06:47;;;;;;;0.60;0.30;;;9.40;99.90;;;;;;5066243;28;20910;-71
2023/12/24 06:09:14;;;;;;;0.60;0.30;;;9.40;99.90;;;;;;5064799;28;20435;-71
2023/12/24 06:11:40;;;;;;;0.70;0.30;;;9.40;99.90;;;;;;5067420;28;20416;-71
2023/12/24 06:14:07;;;;;;;0.60;0.30;;;9.40;99.90;;;;;;5063285;28;20419;-71
2023/12/24 06:16:34;;;;;;;0.60;0.30;;;9.40;99.90;;;;;;5066988;28;20423;-72
2023/12/24 06:19:02;;;;;;;0.60;0.30;;;9.40;99.90;;;;;;5067325;28;20562;-72
2023/12/24 06:21:28;;;;;;;0.70;0.30;;;9.40;99.90;;;;;;5059164;28;20444;-72
2023/12/24 06:23:55;;;;;;;0.60;0.30;;;9.40;99.90;;;;;;5065589;28;20435;-72
2023/12/24 06:26:22;;;;;;;0.70;0.30;;;9.40;99.90;;;;;;5067165;28;20411;-72
2023/12/24 06:28:49;;;;;;;0.80;0.30;;;9.50;99.90;;;;;;5067032;28;20411;-72
2023/12/24 06:31:21;;;;;;;0.63;0.30;;;9.50;99.90;;;;;;5065188;28;20794;-72
2023/12/24 06:33:48;;;;;;;0.70;0.30;;;9.50;99.90;;;;;;5058981;28;20902;-72
2023/12/24 06:36:16;;;;;;;0.60;0.25;;;9.50;99.90;;;;;;5065952;28;20418;-72
2023/12/24 06:38:43;;;;;;;1.10;0.30;;;9.50;99.90;;;;;;5065302;28;20775;-71
2023/12/24 06:41:10;;;;;;;0.60;0.30;;;9.50;99.90;;;;;;5066064;28;20434;-72
2023/12/24 06:43:37;;;;;;;0.60;0.30;;;9.60;99.90;;;;;;5063796;28;20485;-72
2023/12/24 06:46:06;;;;;;;0.95;0.30;;;9.50;99.90;;;;;;5058770;28;20415;-72
2023/12/24 06:48:33;;;;;;;0.60;0.30;;;9.60;99.90;;;;;;5065844;28;20492;-72
2023/12/24 06:51:00;;;;;;;0.70;0.30;;;9.60;99.90;;;;;;5057624;28;20440;-72
2023/12/24 06:53:28;;;;;;;0.60;0.30;;;9.60;99.90;;;;;;5052890;28;20424;-71
2023/12/24 06:55:54;;;;;;;0.60;0.30;;;9.60;99.90;;;;;;5056841;28;20427;-72
2023/12/24 06:58:21;;;;;;;0.60;0.30;;;9.60;99.90;;;;;;5060023;28;20788;-71
2023/12/24 07:00:48;;;;;;;0.70;0.30;;;9.70;99.90;;;;;;5057032;28;20407;-71
2023/12/24 07:03:14;;;;;;;0.60;0.30;;;9.80;99.90;;;;;;5061580;28;20421;-72
2023/12/24 07:05:42;;;;;;;1.40;0.30;;;9.80;99.90;;;;;;5057380;28;20419;-72
2023/12/24 07:08:09;;;;;;;0.60;0.30;;;9.80;99.90;;;;;;5057884;28;20874;-72
2023/12/24 07:10:37;;;;;;;0.70;0.30;;;9.90;99.90;;;;;;5063002;28;20454;-72
2023/12/24 07:13:04;;;;;;;0.60;0.30;;;9.90;99.90;;;;;;5059658;28;20720;-72
2023/12/24 07:15:32;;;;;;;0.60;0.30;;;9.90;99.90;;;;;;5061521;28;20517;-72
2023/12/24 07:17:59;;;;;;;0.60;0.30;;;9.90;99.90;;;;;;5058526;28;20763;-72
2023/12/24 07:20:26;;;;;;;0.70;0.30;;;10.00;99.90;;;;;;5064950;28;20411;-72
2023/12/24 07:22:53;;;;;;;0.60;0.20;;;10.00;99.90;;;;;;5063117;28;20806;-72
2023/12/24 07:25:19;;;;;;;0.60;0.30;;;10.00;99.90;;;;;;5054343;28;20428;-73
2023/12/24 07:27:47;;;;;;;0.60;0.30;;;10.10;99.90;;;;;;5060453;28;20790;-72
2023/12/24 07:30:14;;;;;;;0.60;0.30;;;10.10;99.90;;;;;;5056805;28;20424;-72
2023/12/24 07:32:44;;;;;;;0.60;0.30;;;10.10;99.90;;;;;;5064580;28;20415;-72
2023/12/24 07:35:11;;;;;;;0.60;0.30;;;10.10;99.90;;;;;;5055903;22;20499;-69
2023/12/24 07:37:37;;;;;;;0.60;0.30;;;10.20;99.90;;;;;;5033911;28;20409;-69
2023/12/24 07:40:05;;;;;;;0.60;0.30;;;10.20;99.90;;;;;;5038322;28;20431;-68
2023/12/24 07:42:33;;;;;;;0.80;0.60;;;10.20;99.90;;;;;;5043422;28;20456;-73
2023/12/24 07:45:03;;;;;;;1.67;1.58;;;10.30;99.90;;;;;;5035296;28;20486;-72
2023/12/24 07:47:29;;;;;;;1.15;0.63;;;10.50;99.90;;;;;;5029309;28;20514;-72
2023/12/24 07:49:56;;;;;;;1.13;0.45;;;10.50;99.90;;;;;;5035614;28;20954;-74
2023/12/24 07:52:23;;;;;;;0.60;0.28;;;10.60;99.90;;;;;;5026107;28;21094;-67
2023/12/24 07:54:49;;;;;;;0.70;0.30;;;10.70;99.90;;;;;;5028157;28;20442;-67
2023/12/24 07:57:16;;;;;;;0.60;0.30;;;10.60;99.90;;;;;;5045076;28;20417;-67
2023/12/24 07:59:43;;;;;;;0.60;0.30;;;10.60;99.90;;;;;;5034442;28;20897;-68
2023/12/24 08:02:11;;;;;;;1.00;0.30;;;10.60;99.90;;;;;;5033900;28;20928;-65
2023/12/24 08:04:38;;;;;;;0.60;0.30;;;10.60;99.90;;;;;;5028130;28;20411;-67
2023/12/24 08:07:05;;;;;;;0.60;0.30;;;10.60;99.90;;;;;;5038080;28;20410;-68
2023/12/24 08:09:31;;;;;;;0.60;0.30;;;10.60;99.90;;;;;;5033417;28;20431;-69
2023/12/24 08:11:58;;;;;;;0.68;0.30;;;10.60;99.90;;;;;;5028589;28;20448;-68
2023/12/24 08:14:25;;;;;;;0.68;0.30;;;10.60;99.90;;;;;;5022266;28;20438;-68
2023/12/24 08:16:51;;;;;;;1.10;0.30;;;10.60;99.90;;;;;;5023773;28;20850;-68
2023/12/24 08:19:19;;;;;;;0.70;0.30;;;10.70;99.90;;;;;;5027184;28;20468;-66
2023/12/24 08:21:46;;;;;;;0.60;0.30;;;10.70;99.90;;;;;;5026198;28;21218;-68
2023/12/24 08:24:13;;;;;;;0.70;0.30;;;10.80;99.90;;;;;;5022999;28;20439;-66
2023/12/24 08:26:41;;;;;;;0.90;0.30;;;10.80;99.90;;;;;;5023644;28;20438;-67
2023/12/24 08:29:08;;;;;;;1.10;0.30;;;10.80;99.90;;;;;;5027750;28;20442;-66
2023/12/24 08:31:34;;;;;;;0.60;0.30;;;10.80;99.90;;;;;;5025196;28;20415;-66
2023/12/24 08:34:02;;;;;;;0.60;0.30;;;10.90;99.90;;;;;;5026463;28;20411;-66
2023/12/24 08:36:30;;;;;;;0.70;0.30;;;10.90;99.90;;;;;;5025033;28;20764;-66
2023/12/24 08:38:57;;;;;;;0.60;0.30;;;10.90;99.90;;;;;;5027363;28;20419;-66
2023/12/24 08:41:23;;;;;;;0.60;0.30;;;10.90;99.90;;;;;;5027175;28;20445;-66
2023/12/24 08:43:49;;;;;;;0.60;0.30;;;10.90;99.90;;;;;;5021794;28;20805;-66
2023/12/24 08:46:16;;;;;;;0.60;0.30;;;11.00;99.90;;;;;;5029165;28;20429;-67
2023/12/24 08:48:43;;;;;;;0.93;0.30;;;11.00;99.90;;;;;;5032605;28;20481;-67
2023/12/24 08:51:10;;;;;;;0.70;0.30;;;11.00;99.90;;;;;;5026608;28;20438;-67
2023/12/24 08:53:38;;;;;;;0.60;0.30;;;11.00;99.90;;;;;;5025150;28;20423;-66
2023/12/24 08:56:05;;;;;;;1.25;0.35;;;11.00;99.90;;;;;;5026127;28;20446;-66
2023/12/24 08:58:32;;;;;;;0.80;0.30;;;10.90;99.90;;;;;;5031047;28;20452;-66
2023/12/24 09:00:58;;;;;;;0.60;0.30;;;10.70;99.90;;;;;;5026504;28;20825;-66
2023/12/24 09:03:25;;;;;;;0.70;0.30;;;10.60;99.90;;;;;;5027847;28;20427;-66
2023/12/24 09:05:52;;;;;;;0.80;0.30;;;10.50;99.90;;;;;;5034029;28;20754;-66
2023/12/24 09:08:19;;;;;;;0.70;0.30;;;10.40;99.90;;;;;;5024294;28;20454;-66
2023/12/24 09:10:47;;;;;;;0.80;0.30;;;10.40;99.90;;;;;;5032494;28;20462;-66
2023/12/24 09:13:13;;;;;;;0.80;0.30;;;10.40;99.90;;;;;;5028663;28;20851;-66
2023/12/24 09:15:40;;;;;;;0.70;0.30;;;10.50;99.90;;;;;;5028923;28;20858;-66
2023/12/24 09:18:07;;;;;;;0.70;0.30;;;10.40;99.90;;;;;;5027664;28;20920;-68
2023/12/24 09:20:34;;;;;;;0.70;0.30;;;10.50;99.90;;;;;;5027265;28;20415;-68
2023/12/24 09:23:00;;;;;;;1.40;0.30;;;10.50;99.90;;;;;;5026996;28;20445;-66
2023/12/24 09:25:27;;;;;;;0.60;0.30;;;10.50;99.90;;;;;;5027234;28;20486;-66
2023/12/24 09:27:55;;;;;;;1.10;0.30;;;10.50;99.90;;;;;;5024373;28;20431;-66
2023/12/24 09:30:24;;;;;;;0.90;0.30;;;10.60;99.90;;;;;;5027495;28;20415;-66
2023/12/24 09:32:50;;;;;;;1.10;0.30;;;10.70;99.90;;;;;;5024383;28;20902;-66
2023/12/24 09:35:17;;;;;;;0.80;0.30;;;10.70;99.90;;;;;;5023561;28;20425;-66
2023/12/24 09:37:44;;;;;;;0.77;0.30;;;10.80;99.90;;;;;;5042356;28;20421;-66
2023/12/24 09:40:11;;;;;;;0.60;0.30;;;10.80;99.90;;;;;;5039476;28;20418;-66
2023/12/24 09:42:38;;;;;;;0.60;0.30;;;10.80;99.90;;;;;;5041516;28;20431;-66
2023/12/24 09:45:07;;;;;;;0.60;0.30;;;10.80;99.90;;;;;;5029041;28;20425;-66
2023/12/24 09:47:34;;;;;;;0.70;0.30;;;10.70;99.90;;;;;;5025051;28;20427;-66
2023/12/24 09:50:01;;;;;;;0.80;0.30;;;10.70;99.90;;;;;;5030128;28;20893;-66
2023/12/24 09:52:29;;;;;;;0.60;0.30;;;10.80;99.90;;;;;;5028636;28;20493;-66
2023/12/24 09:54:56;;;;;;;0.70;0.30;;;10.90;99.90;;;;;;5025922;28;20414;-66
2023/12/24 09:57:23;;;;;;;0.70;0.30;;;11.00;99.90;;;;;;5026295;28;20423;-66
2023/12/24 09:59:49;;;;;;;1.00;0.40;;;11.10;99.90;;;;;;5028671;28;20854;-66
2023/12/24 10:02:17;;;;;;;0.70;0.30;;;11.20;99.90;;;;;;5024245;28;20448;-66
2023/12/24 10:04:44;;;;;;;0.70;0.30;;;11.30;99.90;;;;;;5024490;28;20423;-66
2023/12/24 10:07:11;;;;;;;0.60;0.30;;;11.30;99.90;;;;;;5023372;28;20905;-66
2023/12/24 10:09:45;;;;;;;0.80;0.30;;;11.30;99.90;;;;;;5027692;28;20420;-66
2023/12/24 10:12:11;;;;;;;0.70;0.30;;;11.40;99.90;;;;;;5020942;28;20778;-66
2023/12/24 10:14:39;;;;;;;0.80;0.30;;;11.40;99.90;;;;;;5026072;28;20427;-66
2023/12/24 10:17:07;;;;;;;0.65;0.30;;;11.40;99.90;;;;;;5028276;28;20419;-66
2023/12/24 10:19:35;;;;;;;0.70;0.40;;;11.40;99.90;;;;;;5027363;28;20502;-67
2023/12/24 10:22:05;;;;;;;0.70;0.30;;;11.50;99.90;;;;;;5025065;28;20427;-66
2023/12/24 10:24:32;;;;;;;0.80;0.40;;;11.50;99.90;;;;;;5025487;28;20435;-65
2023/12/24 10:27:06;;;;;;;0.90;0.50;;;11.50;99.90;;;;;;5024027;28;20949;-66
2023/12/24 10:29:35;;;;;;;0.90;0.40;;;11.50;99.90;;;;;;5025770;28;20411;-67
2023/12/24 10:32:02;;;;;;;0.98;0.40;;;11.50;99.90;;;;;;5025955;28;20410;-66
2023/12/24 10:34:30;;;;;;;0.80;0.40;;;11.50;99.90;;;;;;5024151;28;20411;-68
2023/12/24 10:37:00;;;;;;;0.90;0.40;;;11.50;99.90;;;;;;5023211;28;20542;-67
2023/12/24 10:39:27;;;;;;;1.20;0.30;;;11.50;99.90;;;;;;5027337;28;20480;-65
2023/12/24 10:41:54;;;;;;;0.60;0.30;;;11.50;99.90;;;;;;5031424;28;20691;-65
2023/12/24 10:44:22;;;;;;;0.70;0.30;;;11.40;99.90;;;;;;5030415;28;20429;-68
2023/12/24 10:46:48;;;;;;;0.80;0.30;;;11.50;99.90;;;;;;5021603;28;20434;-66
2023/12/24 10:49:16;;;;;;;0.60;0.30;;;11.50;99.90;;;;;;5025524;28;20435;-66
2023/12/24 10:51:43;;;;;;;1.00;0.30;;;11.50;99.90;;;;;;5022938;28;20832;-66
2023/12/24 10:54:11;;;;;;;0.80;0.30;;;11.50;99.90;;;;;;5023897;28;20479;-67
2023/12/24 10:56:52;;;;;;;0.70;0.30;;;11.50;99.90;;;;;;5022829;28;20419;-66
2023/12/24 10:59:30;;;;;;;1.00;0.40;;;11.50;99.90;;;;;;5027216;28;20431;-66
2023/12/24 11:01:59;;;;;;;0.60;0.30;;;11.60;99.90;;;;;;5020379;28;20702;-67
2023/12/24 11:04:57;;;;;;;1.20;0.40;;;11.50;99.90;;;;;;5023537;28;20452;-69
2023/12/24 11:07:48;;;;;;;0.70;0.30;;;11.50;99.90;;;;;;4977270;28;20498;-69
2023/12/24 11:10:43;;;;;;;0.68;0.30;;;11.60;99.90;;;;;;5032382;28;20415;-69
2023/12/24 11:13:45;;;;;;;0.82;0.30;;;11.50;99.90;;;;;;5026720;28;20426;-67
2023/12/24 11:16:12;;;;;;;0.80;0.40;;;11.50;99.90;;;;;;5031811;28;20450;-67
2023/12/24 11:18:44;;;;;;;0.70;0.30;;;11.50;99.90;;;;;;5035331;28;20410;-67
2023/12/24 11:21:14;;;;;;;1.10;0.30;;;11.50;99.90;;;;;;5031321;28;20439;-66
2023/12/24 11:23:41;;;;;;;0.70;0.30;;;11.50;99.90;;;;;;5029378;28;20510;-67
2023/12/24 11:26:31;;;;;;;0.60;0.30;;;11.50;99.90;;;;;;5025501;28;20446;-67
2023/12/24 11:28:57;;;;;;;1.03;0.40;;;11.60;99.90;;;;;;5024818;28;20838;-67
2023/12/24 11:31:25;;;;;;;1.08;0.50;;;11.50;99.90;;;;;;5029087;28;20445;-68
2023/12/24 11:33:54;;;;;;;1.42;0.95;;;11.50;99.90;;;;;;5029498;28;20411;-67
2023/12/24 11:36:22;;;;;;;1.20;0.50;;;11.50;99.90;;;;;;5029633;28;20786;-67
2023/12/24 11:38:55;;;;;;;0.90;0.50;;;11.60;99.90;;;;;;5027470;28;20502;-66
2023/12/24 11:41:23;;;;;;;1.10;0.75;;;11.60;99.90;;;;;;5031582;28;20411;-66
2023/12/24 11:43:57;;;;;;;1.50;0.60;;;11.60;99.90;;;;;;5029983;28;20437;-66
2023/12/24 11:46:24;;;;;;;0.88;0.40;;;11.60;99.90;;;;;;5033922;28;20441;-66
2023/12/24 11:48:51;;;;;;;1.30;0.40;;;11.60;99.90;;;;;;5021676;28;20419;-67
2023/12/24 11:51:23;;;;;;;0.82;0.40;;;11.70;99.90;;;;;;5027906;28;20434;-67
2023/12/24 11:53:49;;;;;;;0.70;0.40;;;11.70;99.90;;;;;;5026509;28;20415;-67
2023/12/24 11:56:19;;;;;;;1.90;0.40;;;11.70;99.90;;;;;;5029583;28;20735;-66
2023/12/24 11:58:59;;;;;;;1.00;0.40;;;11.80;99.90;;;;;;5025743;28;20472;-70
2023/12/24 12:01:27;;;;;;;0.80;0.40;;;11.80;99.90;;;;;;5024914;28;20439;-66
2023/12/24 12:03:56;;;;;;;0.70;0.40;;;11.80;99.90;;;;;;5025516;28;20950;-67
2023/12/24 12:06:22;;;;;;;1.00;0.50;;;11.80;99.90;;;;;;5023990;28;20537;-67
2023/12/24 12:08:49;;;;;;;1.50;0.50;;;11.80;99.90;;;;;;5024558;28;20415;-66
2023/12/24 12:11:16;;;;;;;1.10;0.50;;;11.80;99.90;;;;;;5027415;28;20461;-66
2023/12/24 12:13:42;;;;;;;0.90;0.50;;;11.80;99.90;;;;;;5022433;28;20431;-68
2023/12/24 12:16:10;;;;;;;1.20;0.50;;;11.80;99.90;;;;;;5022651;28;20443;-68
2023/12/24 12:18:37;;;;;;;0.80;0.40;;;11.80;99.90;;;;;;5022545;28;20819;-68
2023/12/24 12:21:04;;;;;;;1.35;0.93;;;11.90;99.90;;;;;;5020051;28;20450;-71
2023/12/24 12:23:31;;;;;;;1.15;0.90;;;11.90;99.90;;;;;;5025599;28;21238;-74
2023/12/24 12:25:58;;;;;;;1.80;0.70;;;12.00;99.90;;;;;;5022549;28;20457;-70
2023/12/24 12:28:25;;;;;;;1.10;0.60;;;12.20;99.90;;;;;;5022092;28;20484;-71
2023/12/24 12:30:51;;;;;;;1.02;0.50;;;12.30;99.90;;;;;;5027395;28;20446;-70
2023/12/24 12:33:19;;;;;;;0.90;0.50;;;12.20;99.90;;;;;;5033450;28;20498;-68
2023/12/24 12:35:46;;;;;;;0.80;0.40;;;12.10;99.90;;;;;;5032062;28;20420;-70
2023/12/24 12:38:13;;;;;;;0.80;0.50;;;11.90;99.90;;;;;;5027641;28;20426;-70
2023/12/24 12:40:39;;;;;;;1.40;0.60;;;11.60;99.90;;;;;;5029749;28;20415;-69
2023/12/24 12:43:08;;;;;;;1.65;0.70;;;11.30;99.90;;;;;;5022874;28;20418;-69
2023/12/24 12:45:35;;;;;;;1.10;0.60;;;11.10;99.90;;;;;;5025310;28;20958;-69
2023/12/24 12:48:03;;;;;;;0.90;0.40;;;11.00;99.90;;;;;;5028518;28;20426;-70
2023/12/24 12:50:31;;;;;;;1.17;0.50;;;10.80;99.90;;;;;;5034515;28;20814;-69
2023/12/24 12:52:58;;;;;;;0.80;0.40;;;10.80;99.90;;;;;;5026653;28;20442;-70
2023/12/24 12:55:24;;;;;;;0.90;0.50;;;10.70;99.90;;;;;;5026096;28;21244;-69